Terminal Aerodrome Forecast
Issued by NWS

Home | Current Version | Previous Version | Text Only | Print | Product List | Glossary On
Versions: 1 2 3 4 5 6 7 8 9 10 11 12 13 14 15
000
FTUS45 KTFX 031121
TAFLWT
TAF
KLWT 031121Z 0312/0412 14006KT P6SM SCT090
     FM031800 12008KT P6SM VCSH SCT040 BKN080
     FM032200 10010KT P6SM VCTS SCT035CB BKN060 PROB30 0400/0406
      -TSRA BKN035CB
     FM040600 10008KT P6SM -SHRA SCT025 OVC035=

USA.gov is the U.S. government's official web portal to all federal, state and local government web resources and services.